sensor_id;sensor_type;location;lat;lon;timestamp;temperature;humidity
15638;DHT22;26604;53.596;10.042;2022-11-23T00:01:54;21.70;99.90
15638;DHT22;26604;53.596;10.042;2022-11-23T00:04:21;21.70;99.90
15638;DHT22;26604;53.596;10.042;2022-11-23T00:06:49;21.70;99.90
15638;DHT22;26604;53.596;10.042;2022-11-23T00:09:16;21.70;99.90
15638;DHT22;26604;53.596;10.042;2022-11-23T00:11:43;21.70;99.90
15638;DHT22;26604;53.596;10.042;2022-11-23T00:14:10;21.70;99.90
15638;DHT22;26604;53.596;10.042;2022-11-23T00:16:36;21.60;99.90
15638;DHT22;26604;53.596;10.042;2022-11-23T00:19:05;21.60;99.90
15638;DHT22;26604;53.596;10.042;2022-11-23T00:21:32;21.50;99.90
15638;DHT22;26604;53.596;10.042;2022-11-23T00:23:59;21.50;99.90
15638;DHT22;26604;53.596;10.042;2022-11-23T00:26:26;21.40;99.90
15638;DHT22;26604;53.596;10.042;2022-11-23T00:28:53;21.40;99.90
15638;DHT22;26604;53.596;10.042;2022-11-23T00:31:20;21.30;99.90
15638;DHT22;26604;53.596;10.042;2022-11-23T00:33:50;21.20;99.90
15638;DHT22;26604;53.596;10.042;2022-11-23T00:36:20;21.20;99.90
15638;DHT22;26604;53.596;10.042;2022-11-23T00:38:48;21.10;99.90
15638;DHT22;26604;53.596;10.042;2022-11-23T00:41:17;21.10;99.90
15638;DHT22;26604;53.596;10.042;2022-11-23T00:43:45;21.10;99.90
15638;DHT22;26604;53.596;10.042;2022-11-23T00:46:13;21.10;99.90
15638;DHT22;26604;53.596;10.042;2022-11-23T00:48:40;21.20;99.90
15638;DHT22;26604;53.596;10.042;2022-11-23T00:51:09;21.20;99.90
15638;DHT22;26604;53.596;10.042;2022-11-23T00:53:38;21.30;99.90
15638;DHT22;26604;53.596;10.042;2022-11-23T00:56:05;21.30;99.90
15638;DHT22;26604;53.596;10.042;2022-11-23T00:58:32;21.30;99.90
15638;DHT22;26604;53.596;10.042;2022-11-23T01:01:01;21.40;99.90
15638;DHT22;26604;53.596;10.042;2022-11-23T01:03:28;21.30;99.90
15638;DHT22;26604;53.596;10.042;2022-11-23T01:05:55;21.30;99.90
15638;DHT22;26604;53.596;10.042;2022-11-23T01:08:22;21.30;99.90
15638;DHT22;26604;53.596;10.042;2022-11-23T01:10:50;21.30;99.90
15638;DHT22;26604;53.596;10.042;2022-11-23T01:13:17;21.30;99.90
15638;DHT22;26604;53.596;10.042;2022-11-23T01:15:48;21.30;99.90
15638;DHT22;26604;53.596;10.042;2022-11-23T01:18:15;21.40;99.90
15638;DHT22;26604;53.596;10.042;2022-11-23T01:20:42;21.50;99.90
15638;DHT22;26604;53.596;10.042;2022-11-23T01:23:09;21.50;99.90
15638;DHT22;26604;53.596;10.042;2022-11-23T01:25:36;21.60;99.90
15638;DHT22;26604;53.596;10.042;2022-11-23T01:28:04;21.70;99.90
15638;DHT22;26604;53.596;10.042;2022-11-23T01:30:31;21.70;99.90
15638;DHT22;26604;53.596;10.042;2022-11-23T01:32:59;21.70;99.90
15638;DHT22;26604;53.596;10.042;2022-11-23T01:35:26;21.70;99.90
15638;DHT22;26604;53.596;10.042;2022-11-23T01:37:53;21.70;99.90
15638;DHT22;26604;53.596;10.042;2022-11-23T01:40:21;21.60;99.90
15638;DHT22;26604;53.596;10.042;2022-11-23T01:42:52;21.60;99.90
15638;DHT22;26604;53.596;10.042;2022-11-23T01:45:36;21.50;99.90
15638;DHT22;26604;53.596;10.042;2022-11-23T01:48:06;21.50;99.90
15638;DHT22;26604;53.596;10.042;2022-11-23T01:50:35;21.40;99.90
15638;DHT22;26604;53.596;10.042;2022-11-23T01:53:02;21.40;99.90
15638;DHT22;26604;53.596;10.042;2022-11-23T01:55:30;21.30;99.90
15638;DHT22;26604;53.596;10.042;2022-11-23T01:57:57;21.20;99.90
15638;DHT22;26604;53.596;10.042;2022-11-23T02:00:23;21.20;99.90
15638;DHT22;26604;53.596;10.042;2022-11-23T02:02:56;21.10;99.90
15638;DHT22;26604;53.596;10.042;2022-11-23T02:05:27;21.10;99.90
15638;DHT22;26604;53.596;10.042;2022-11-23T02:07:57;21.00;99.90
15638;DHT22;26604;53.596;10.042;2022-11-23T02:10:24;21.00;99.90
15638;DHT22;26604;53.596;10.042;2022-11-23T02:12:52;21.00;99.90
15638;DHT22;26604;53.596;10.042;2022-11-23T02:15:19;21.00;99.90
15638;DHT22;26604;53.596;10.042;2022-11-23T02:17:46;21.00;99.90
15638;DHT22;26604;53.596;10.042;2022-11-23T02:20:17;21.00;99.90
15638;DHT22;26604;53.596;10.042;2022-11-23T02:22:52;21.00;99.90
15638;DHT22;26604;53.596;10.042;2022-11-23T02:25:29;21.00;99.90
15638;DHT22;26604;53.596;10.042;2022-11-23T02:28:00;20.90;99.90
15638;DHT22;26604;53.596;10.042;2022-11-23T02:30:30;21.00;99.90
15638;DHT22;26604;53.596;10.042;2022-11-23T02:32:57;21.00;99.90
15638;DHT22;26604;53.596;10.042;2022-11-23T02:35:24;21.00;99.90
15638;DHT22;26604;53.596;10.042;2022-11-23T02:37:51;21.10;99.90
15638;DHT22;26604;53.596;10.042;2022-11-23T02:40:26;21.30;99.90
15638;DHT22;26604;53.596;10.042;2022-11-23T02:42:53;21.40;99.90
15638;DHT22;26604;53.596;10.042;2022-11-23T02:45:27;21.50;99.90
15638;DHT22;26604;53.596;10.042;2022-11-23T02:47:54;21.50;99.90
15638;DHT22;26604;53.596;10.042;2022-11-23T02:50:21;21.60;99.90
15638;DHT22;26604;53.596;10.042;2022-11-23T02:52:48;21.60;99.90
15638;DHT22;26604;53.596;10.042;2022-11-23T02:55:15;21.60;99.90
15638;DHT22;26604;53.596;10.042;2022-11-23T02:57:42;21.70;99.90
15638;DHT22;26604;53.596;10.042;2022-11-23T03:00:10;21.60;99.90
15638;DHT22;26604;53.596;10.042;2022-11-23T03:02:38;21.60;99.90
15638;DHT22;26604;53.596;10.042;2022-11-23T03:05:06;21.60;99.90
15638;DHT22;26604;53.596;10.042;2022-11-23T03:07:33;21.60;99.90
15638;DHT22;26604;53.596;10.042;2022-11-23T03:10:00;21.60;99.90
15638;DHT22;26604;53.596;10.042;2022-11-23T03:12:26;21.50;99.90
15638;DHT22;26604;53.596;10.042;2022-11-23T03:14:53;21.50;99.90
15638;DHT22;26604;53.596;10.042;2022-11-23T03:17:20;21.50;99.90
15638;DHT22;26604;53.596;10.042;2022-11-23T03:19:48;21.40;99.90
15638;DHT22;26604;53.596;10.042;2022-11-23T03:22:15;21.40;99.90
15638;DHT22;26604;53.596;10.042;2022-11-23T03:24:42;21.30;99.90
15638;DHT22;26604;53.596;10.042;2022-11-23T03:27:09;21.20;99.90
15638;DHT22;26604;53.596;10.042;2022-11-23T03:29:36;21.10;99.90
15638;DHT22;26604;53.596;10.042;2022-11-23T03:32:04;21.10;99.90
15638;DHT22;26604;53.596;10.042;2022-11-23T03:34:31;21.10;99.90
15638;DHT22;26604;53.596;10.042;2022-11-23T03:36:59;21.00;99.90
15638;DHT22;26604;53.596;10.042;2022-11-23T03:39:26;20.90;99.90
15638;DHT22;26604;53.596;10.042;2022-11-23T03:41:52;20.90;99.90
15638;DHT22;26604;53.596;10.042;2022-11-23T03:44:19;20.80;99.90
15638;DHT22;26604;53.596;10.042;2022-11-23T03:46:46;20.80;99.90
15638;DHT22;26604;53.596;10.042;2022-11-23T03:49:14;20.80;99.90
15638;DHT22;26604;53.596;10.042;2022-11-23T03:51:41;20.80;99.90
15638;DHT22;26604;53.596;10.042;2022-11-23T03:54:10;20.90;99.90
15638;DHT22;26604;53.596;10.042;2022-11-23T03:56:36;21.00;99.90
15638;DHT22;26604;53.596;10.042;2022-11-23T03:59:03;21.20;99.90
15638;DHT22;26604;53.596;10.042;2022-11-23T04:01:30;21.30;99.90
15638;DHT22;26604;53.596;10.042;2022-11-23T04:03:57;21.50;99.90
15638;DHT22;26604;53.596;10.042;2022-11-23T04:06:24;21.60;99.90
15638;DHT22;26604;53.596;10.042;2022-11-23T04:08:51;21.60;99.90
15638;DHT22;26604;53.596;10.042;2022-11-23T04:11:19;21.70;99.90
15638;DHT22;26604;53.596;10.042;2022-11-23T04:13:46;21.70;99.90
15638;DHT22;26604;53.596;10.042;2022-11-23T04:16:13;21.70;99.90
15638;DHT22;26604;53.596;10.042;2022-11-23T04:18:40;21.70;99.90
15638;DHT22;26604;53.596;10.042;2022-11-23T04:21:07;21.70;99.90
15638;DHT22;26604;53.596;10.042;2022-11-23T04:23:34;21.70;99.90
15638;DHT22;26604;53.596;10.042;2022-11-23T04:26:00;21.60;99.90
15638;DHT22;26604;53.596;10.042;2022-11-23T04:28:29;21.50;99.90
15638;DHT22;26604;53.596;10.042;2022-11-23T04:30:56;21.50;99.90
15638;DHT22;26604;53.596;10.042;2022-11-23T04:33:23;21.50;99.90
15638;DHT22;26604;53.596;10.042;2022-11-23T04:35:50;21.40;99.90
15638;DHT22;26604;53.596;10.042;2022-11-23T04:38:17;21.30;99.90
15638;DHT22;26604;53.596;10.042;2022-11-23T04:40:46;21.30;99.90
15638;DHT22;26604;53.596;10.042;2022-11-23T04:43:13;21.30;99.90
15638;DHT22;26604;53.596;10.042;2022-11-23T04:45:41;21.20;99.90
15638;DHT22;26604;53.596;10.042;2022-11-23T04:48:08;21.10;99.90
15638;DHT22;26604;53.596;10.042;2022-11-23T04:50:35;21.10;99.90
15638;DHT22;26604;53.596;10.042;2022-11-23T04:53:03;21.00;99.90
15638;DHT22;26604;53.596;10.042;2022-11-23T04:55:30;21.00;99.90
15638;DHT22;26604;53.596;10.042;2022-11-23T04:57:57;20.90;99.90
15638;DHT22;26604;53.596;10.042;2022-11-23T05:00:23;20.90;99.90
15638;DHT22;26604;53.596;10.042;2022-11-23T05:02:52;20.90;99.90
15638;DHT22;26604;53.596;10.042;2022-11-23T05:05:19;20.90;99.90
15638;DHT22;26604;53.596;10.042;2022-11-23T05:07:46;20.90;99.90
15638;DHT22;26604;53.596;10.042;2022-11-23T05:10:12;21.00;99.90
15638;DHT22;26604;53.596;10.042;2022-11-23T05:12:39;21.10;99.90
15638;DHT22;26604;53.596;10.042;2022-11-23T05:15:07;21.20;99.90
15638;DHT22;26604;53.596;10.042;2022-11-23T05:17:34;21.40;99.90
15638;DHT22;26604;53.596;10.042;2022-11-23T05:20:03;21.50;99.90
15638;DHT22;26604;53.596;10.042;2022-11-23T05:22:30;21.60;99.90
15638;DHT22;26604;53.596;10.042;2022-11-23T05:24:57;21.70;99.90
15638;DHT22;26604;53.596;10.042;2022-11-23T05:27:23;21.80;99.90
15638;DHT22;26604;53.596;10.042;2022-11-23T05:29:50;21.80;99.90
15638;DHT22;26604;53.596;10.042;2022-11-23T05:32:17;21.80;99.90
15638;DHT22;26604;53.596;10.042;2022-11-23T05:34:44;21.80;99.90
15638;DHT22;26604;53.596;10.042;2022-11-23T05:37:12;21.80;99.90
15638;DHT22;26604;53.596;10.042;2022-11-23T05:39:39;21.70;99.90
15638;DHT22;26604;53.596;10.042;2022-11-23T05:42:06;21.70;99.90
15638;DHT22;26604;53.596;10.042;2022-11-23T05:44:33;21.60;99.90
15638;DHT22;26604;53.596;10.042;2022-11-23T05:47:00;21.60;99.90
15638;DHT22;26604;53.596;10.042;2022-11-23T05:49:27;21.50;99.90
15638;DHT22;26604;53.596;10.042;2022-11-23T05:51:54;21.50;99.90
15638;DHT22;26604;53.596;10.042;2022-11-23T05:54:22;21.40;99.90
15638;DHT22;26604;53.596;10.042;2022-11-23T05:56:49;21.40;99.90
15638;DHT22;26604;53.596;10.042;2022-11-23T05:59:16;21.30;99.90
15638;DHT22;26604;53.596;10.042;2022-11-23T06:01:43;21.20;99.90
15638;DHT22;26604;53.596;10.042;2022-11-23T06:04:09;21.20;99.90
15638;DHT22;26604;53.596;10.042;2022-11-23T06:06:38;21.10;99.90
15638;DHT22;26604;53.596;10.042;2022-11-23T06:09:04;21.10;99.90
15638;DHT22;26604;53.596;10.042;2022-11-23T06:11:33;21.00;99.90
15638;DHT22;26604;53.596;10.042;2022-11-23T06:14:00;21.00;99.90
15638;DHT22;26604;53.596;10.042;2022-11-23T06:16:27;20.90;99.90
15638;DHT22;26604;53.596;10.042;2022-11-23T06:18:54;20.90;99.90
15638;DHT22;26604;53.596;10.042;2022-11-23T06:21:20;20.80;99.90
15638;DHT22;26604;53.596;10.042;2022-11-23T06:23:47;20.80;99.90
15638;DHT22;26604;53.596;10.042;2022-11-23T06:26:14;20.80;99.90
15638;DHT22;26604;53.596;10.042;2022-11-23T06:28:43;20.90;99.90
15638;DHT22;26604;53.596;10.042;2022-11-23T06:31:10;21.00;99.90
15638;DHT22;26604;53.596;10.042;2022-11-23T06:33:37;21.20;99.90
15638;DHT22;26604;53.596;10.042;2022-11-23T06:36:04;21.30;99.90
15638;DHT22;26604;53.596;10.042;2022-11-23T06:38:31;21.50;99.90
15638;DHT22;26604;53.596;10.042;2022-11-23T06:40:58;21.60;99.90
15638;DHT22;26604;53.596;10.042;2022-11-23T06:43:25;21.70;99.90
15638;DHT22;26604;53.596;10.042;2022-11-23T06:45:54;21.70;99.90
15638;DHT22;26604;53.596;10.042;2022-11-23T06:48:21;21.70;99.90
15638;DHT22;26604;53.596;10.042;2022-11-23T06:50:48;21.70;99.90
15638;DHT22;26604;53.596;10.042;2022-11-23T06:53:15;21.70;99.90
15638;DHT22;26604;53.596;10.042;2022-11-23T06:55:42;21.60;99.90
15638;DHT22;26604;53.596;10.042;2022-11-23T06:58:08;21.60;99.90
15638;DHT22;26604;53.596;10.042;2022-11-23T07:00:35;21.50;99.90
15638;DHT22;26604;53.596;10.042;2022-11-23T07:03:04;21.50;99.90
15638;DHT22;26604;53.596;10.042;2022-11-23T07:05:30;21.40;99.90
15638;DHT22;26604;53.596;10.042;2022-11-23T07:07:57;21.40;99.90
15638;DHT22;26604;53.596;10.042;2022-11-23T07:10:24;21.30;99.90
15638;DHT22;26604;53.596;10.042;2022-11-23T07:12:51;21.30;99.90
15638;DHT22;26604;53.596;10.042;2022-11-23T07:15:18;21.20;99.90
15638;DHT22;26604;53.596;10.042;2022-11-23T07:17:45;21.20;99.90
15638;DHT22;26604;53.596;10.042;2022-11-23T07:20:13;21.10;99.90
15638;DHT22;26604;53.596;10.042;2022-11-23T07:22:40;21.00;99.90
15638;DHT22;26604;53.596;10.042;2022-11-23T07:25:07;21.00;99.90
15638;DHT22;26604;53.596;10.042;2022-11-23T07:27:35;20.90;99.90
15638;DHT22;26604;53.596;10.042;2022-11-23T07:30:03;20.90;99.90
15638;DHT22;26604;53.596;10.042;2022-11-23T07:32:30;20.80;99.90
15638;DHT22;26604;53.596;10.042;2022-11-23T07:34:57;20.80;99.90
15638;DHT22;26604;53.596;10.042;2022-11-23T07:37:25;20.90;99.90
15638;DHT22;26604;53.596;10.042;2022-11-23T07:39:52;20.90;99.90
15638;DHT22;26604;53.596;10.042;2022-11-23T07:42:19;20.50;99.90
15638;DHT22;26604;53.596;10.042;2022-11-23T07:44:46;21.10;99.90
15638;DHT22;26604;53.596;10.042;2022-11-23T07:47:13;21.20;99.90
15638;DHT22;26604;53.596;10.042;2022-11-23T07:49:40;21.20;99.90
15638;DHT22;26604;53.596;10.042;2022-11-23T07:52:07;21.20;99.90
15638;DHT22;26604;53.596;10.042;2022-11-23T07:54:35;21.20;99.90
15638;DHT22;26604;53.596;10.042;2022-11-23T07:57:02;20.90;99.90
15638;DHT22;26604;53.596;10.042;2022-11-23T07:59:29;21.20;99.90
15638;DHT22;26604;53.596;10.042;2022-11-23T08:01:55;21.20;99.90
15638;DHT22;26604;53.596;10.042;2022-11-23T08:04:22;21.10;99.90
15638;DHT22;26604;53.596;10.042;2022-11-23T08:06:49;21.00;99.90
15638;DHT22;26604;53.596;10.042;2022-11-23T08:09:16;21.00;99.90
15638;DHT22;26604;53.596;10.042;2022-11-23T08:11:44;20.90;99.90
15638;DHT22;26604;53.596;10.042;2022-11-23T08:14:11;20.90;99.90
15638;DHT22;26604;53.596;10.042;2022-11-23T08:16:38;20.80;99.90
15638;DHT22;26604;53.596;10.042;2022-11-23T08:19:05;20.80;99.90
15638;DHT22;26604;53.596;10.042;2022-11-23T08:21:32;20.70;99.90
15638;DHT22;26604;53.596;10.042;2022-11-23T08:23:59;20.70;99.90
15638;DHT22;26604;53.596;10.042;2022-11-23T08:26:25;20.60;99.90
15638;DHT22;26604;53.596;10.042;2022-11-23T08:28:54;20.60;99.90
15638;DHT22;26604;53.596;10.042;2022-11-23T08:31:22;20.50;99.90
15638;DHT22;26604;53.596;10.042;2022-11-23T08:33:49;20.50;99.90
15638;DHT22;26604;53.596;10.042;2022-11-23T08:36:16;20.50;99.90
15638;DHT22;26604;53.596;10.042;2022-11-23T08:38:42;20.40;99.90
15638;DHT22;26604;53.596;10.042;2022-11-23T08:41:09;20.40;99.90
15638;DHT22;26604;53.596;10.042;2022-11-23T08:43:36;20.40;99.90
15638;DHT22;26604;53.596;10.042;2022-11-23T08:46:05;20.30;99.90
15638;DHT22;26604;53.596;10.042;2022-11-23T08:48:31;20.30;99.90
15638;DHT22;26604;53.596;10.042;2022-11-23T08:50:58;20.00;99.90
15638;DHT22;26604;53.596;10.042;2022-11-23T08:53:26;20.20;99.90
15638;DHT22;26604;53.596;10.042;2022-11-23T08:55:52;20.20;99.90
15638;DHT22;26604;53.596;10.042;2022-11-23T08:58:19;20.20;99.90
15638;DHT22;26604;53.596;10.042;2022-11-23T09:00:46;20.20;99.90
15638;DHT22;26604;53.596;10.042;2022-11-23T09:03:14;20.20;99.90
15638;DHT22;26604;53.596;10.042;2022-11-23T09:05:41;20.20;99.90
15638;DHT22;26604;53.596;10.042;2022-11-23T09:08:08;20.20;99.90
15638;DHT22;26604;53.596;10.042;2022-11-23T09:10:35;20.20;99.90
15638;DHT22;26604;53.596;10.042;2022-11-23T09:13:02;20.30;99.90
15638;DHT22;26604;53.596;10.042;2022-11-23T09:15:29;20.30;99.90
15638;DHT22;26604;53.596;10.042;2022-11-23T09:17:57;20.30;99.90
15638;DHT22;26604;53.596;10.042;2022-11-23T09:20:25;20.40;99.90
15638;DHT22;26604;53.596;10.042;2022-11-23T09:22:52;20.40;99.90
15638;DHT22;26604;53.596;10.042;2022-11-23T09:25:20;20.40;99.90
15638;DHT22;26604;53.596;10.042;2022-11-23T09:27:47;20.50;99.90
15638;DHT22;26604;53.596;10.042;2022-11-23T09:30:15;20.40;99.90
15638;DHT22;26604;53.596;10.042;2022-11-23T09:32:42;20.40;99.90
15638;DHT22;26604;53.596;10.042;2022-11-23T09:35:09;20.40;99.90
15638;DHT22;26604;53.596;10.042;2022-11-23T09:37:37;20.50;99.90
15638;DHT22;26604;53.596;10.042;2022-11-23T09:40:05;20.60;99.90
15638;DHT22;26604;53.596;10.042;2022-11-23T09:42:50;20.70;99.90
15638;DHT22;26604;53.596;10.042;2022-11-23T09:45:22;20.90;99.90
15638;DHT22;26604;53.596;10.042;2022-11-23T09:48:04;21.10;99.90
15638;DHT22;26604;53.596;10.042;2022-11-23T09:50:43;21.30;99.90
15638;DHT22;26604;53.596;10.042;2022-11-23T09:53:16;21.50;99.90
15638;DHT22;26604;53.596;10.042;2022-11-23T09:55:47;21.60;99.90
15638;DHT22;26604;53.596;10.042;2022-11-23T09:58:17;21.70;99.90
15638;DHT22;26604;53.596;10.042;2022-11-23T10:00:47;21.80;99.90
15638;DHT22;26604;53.596;10.042;2022-11-23T10:03:16;21.80;99.90
15638;DHT22;26604;53.596;10.042;2022-11-23T10:05:54;21.90;99.90
15638;DHT22;26604;53.596;10.042;2022-11-23T10:08:34;21.90;99.90
15638;DHT22;26604;53.596;10.042;2022-11-23T10:11:11;22.00;99.90
15638;DHT22;26604;53.596;10.042;2022-11-23T10:13:44;22.00;99.90
15638;DHT22;26604;53.596;10.042;2022-11-23T10:16:27;22.00;99.90
15638;DHT22;26604;53.596;10.042;2022-11-23T10:18:59;22.00;99.90
15638;DHT22;26604;53.596;10.042;2022-11-23T10:21:36;21.90;99.90
15638;DHT22;26604;53.596;10.042;2022-11-23T10:24:13;21.80;99.90
15638;DHT22;26604;53.596;10.042;2022-11-23T10:26:44;21.70;99.90
15638;DHT22;26604;53.596;10.042;2022-11-23T10:29:14;21.60;99.90
15638;DHT22;26604;53.596;10.042;2022-11-23T10:31:45;21.60;99.90
15638;DHT22;26604;53.596;10.042;2022-11-23T10:34:15;21.50;99.90
15638;DHT22;26604;53.596;10.042;2022-11-23T10:36:43;21.40;99.90
15638;DHT22;26604;53.596;10.042;2022-11-23T10:39:17;21.40;99.90
15638;DHT22;26604;53.596;10.042;2022-11-23T10:41:45;21.30;99.90
15638;DHT22;26604;53.596;10.042;2022-11-23T10:44:27;21.20;99.90
15638;DHT22;26604;53.596;10.042;2022-11-23T10:46:55;21.10;99.90
15638;DHT22;26604;53.596;10.042;2022-11-23T10:49:23;21.00;99.90
15638;DHT22;26604;53.596;10.042;2022-11-23T10:51:56;21.00;99.90
15638;DHT22;26604;53.596;10.042;2022-11-23T10:54:33;20.90;99.90
15638;DHT22;26604;53.596;10.042;2022-11-23T10:57:02;20.80;99.90
15638;DHT22;26604;53.596;10.042;2022-11-23T10:59:34;20.80;99.90
15638;DHT22;26604;53.596;10.042;2022-11-23T11:02:14;20.90;99.90
15638;DHT22;26604;53.596;10.042;2022-11-23T11:04:42;21.00;99.90
15638;DHT22;26604;53.596;10.042;2022-11-23T11:07:17;21.20;99.90
15638;DHT22;26604;53.596;10.042;2022-11-23T11:09:56;21.30;99.90
15638;DHT22;26604;53.596;10.042;2022-11-23T11:12:23;21.50;99.90
15638;DHT22;26604;53.596;10.042;2022-11-23T11:15:02;21.60;99.90
15638;DHT22;26604;53.596;10.042;2022-11-23T11:17:31;21.70;99.90
15638;DHT22;26604;53.596;10.042;2022-11-23T11:19:59;21.80;99.90
15638;DHT22;26604;53.596;10.042;2022-11-23T11:22:31;21.80;99.90
15638;DHT22;26604;53.596;10.042;2022-11-23T11:25:00;21.90;99.90
15638;DHT22;26604;53.596;10.042;2022-11-23T11:27:29;21.90;99.90
15638;DHT22;26604;53.596;10.042;2022-11-23T11:30:00;21.80;99.90
15638;DHT22;26604;53.596;10.042;2022-11-23T11:32:37;21.80;99.90
15638;DHT22;26604;53.596;10.042;2022-11-23T11:35:11;21.70;99.90
15638;DHT22;26604;53.596;10.042;2022-11-23T11:37:41;21.60;99.90
15638;DHT22;26604;53.596;10.042;2022-11-23T11:40:16;21.50;99.90
15638;DHT22;26604;53.596;10.042;2022-11-23T11:42:47;21.40;99.90
15638;DHT22;26604;53.596;10.042;2022-11-23T11:45:19;21.30;99.90
15638;DHT22;26604;53.596;10.042;2022-11-23T11:47:53;21.20;99.90
15638;DHT22;26604;53.596;10.042;2022-11-23T11:50:24;21.00;99.90
15638;DHT22;26604;53.596;10.042;2022-11-23T11:52:55;21.00;99.90
15638;DHT22;26604;53.596;10.042;2022-11-23T11:55:27;20.90;99.90
15638;DHT22;26604;53.596;10.042;2022-11-23T11:58:01;20.80;99.90
15638;DHT22;26604;53.596;10.042;2022-11-23T12:00:29;20.80;99.90
15638;DHT22;26604;53.596;10.042;2022-11-23T12:03:05;20.70;99.90
15638;DHT22;26604;53.596;10.042;2022-11-23T12:05:38;20.60;99.90
15638;DHT22;26604;53.596;10.042;2022-11-23T12:08:11;20.50;99.90
15638;DHT22;26604;53.596;10.042;2022-11-23T12:10:44;20.10;99.10
15638;DHT22;26604;53.596;10.042;2022-11-23T12:13:14;19.60;99.50
15638;DHT22;26604;53.596;10.042;2022-11-23T12:15:44;19.40;99.90
15638;DHT22;26604;53.596;10.042;2022-11-23T12:18:24;19.20;99.00
15638;DHT22;26604;53.596;10.042;2022-11-23T12:21:00;19.10;98.20
15638;DHT22;26604;53.596;10.042;2022-11-23T12:23:40;19.00;98.00
15638;DHT22;26604;53.596;10.042;2022-11-23T12:26:18;19.00;98.50
15638;DHT22;26604;53.596;10.042;2022-11-23T12:29:00;19.10;99.00
15638;DHT22;26604;53.596;10.042;2022-11-23T12:31:38;19.30;99.20
15638;DHT22;26604;53.596;10.042;2022-11-23T12:34:18;19.40;98.40
15638;DHT22;26604;53.596;10.042;2022-11-23T12:37:04;19.50;99.40
15638;DHT22;26604;53.596;10.042;2022-11-23T12:39:55;19.70;99.90
15638;DHT22;26604;53.596;10.042;2022-11-23T12:42:35;19.90;99.90
15638;DHT22;26604;53.596;10.042;2022-11-23T12:45:16;20.00;99.90
15638;DHT22;26604;53.596;10.042;2022-11-23T12:47:50;20.10;99.90
15638;DHT22;26604;53.596;10.042;2022-11-23T12:50:25;20.20;99.90
15638;DHT22;26604;53.596;10.042;2022-11-23T12:53:02;19.60;99.90
15638;DHT22;26604;53.596;10.042;2022-11-23T12:55:38;20.20;99.90
15638;DHT22;26604;53.596;10.042;2022-11-23T12:58:25;20.20;99.90
15638;DHT22;26604;53.596;10.042;2022-11-23T13:00:55;20.20;99.90
15638;DHT22;26604;53.596;10.042;2022-11-23T13:07:06;20.20;99.90
15638;DHT22;26604;53.596;10.042;2022-11-23T13:09:46;20.20;99.90
15638;DHT22;26604;53.596;10.042;2022-11-23T13:12:32;20.20;99.90
15638;DHT22;26604;53.596;10.042;2022-11-23T13:15:23;20.10;99.90
15638;DHT22;26604;53.596;10.042;2022-11-23T13:17:58;20.10;99.90
15638;DHT22;26604;53.596;10.042;2022-11-23T13:20:45;20.10;99.90
15638;DHT22;26604;53.596;10.042;2022-11-23T13:23:14;20.00;99.90
15638;DHT22;26604;53.596;10.042;2022-11-23T13:26:12;20.00;99.90
15638;DHT22;26604;53.596;10.042;2022-11-23T13:28:39;19.90;99.90
15638;DHT22;26604;53.596;10.042;2022-11-23T13:31:25;19.90;99.90
15638;DHT22;26604;53.596;10.042;2022-11-23T13:33:53;19.90;99.90
15638;DHT22;26604;53.596;10.042;2022-11-23T13:36:41;19.90;99.90
15638;DHT22;26604;53.596;10.042;2022-11-23T13:42:23;19.90;99.90
15638;DHT22;26604;53.596;10.042;2022-11-23T13:48:04;19.80;99.90
15638;DHT22;26604;53.596;10.042;2022-11-23T13:50:33;19.80;99.90
15638;DHT22;26604;53.596;10.042;2022-11-23T13:53:00;19.70;99.90
15638;DHT22;26604;53.596;10.042;2022-11-23T13:55:32;19.70;99.90
15638;DHT22;26604;53.596;10.042;2022-11-23T13:58:35;19.70;99.90
15638;DHT22;26604;53.596;10.042;2022-11-23T14:01:02;19.70;99.90
15638;DHT22;26604;53.596;10.042;2022-11-23T14:03:53;19.70;99.90
15638;DHT22;26604;53.596;10.042;2022-11-23T14:06:32;19.80;99.90
15638;DHT22;26604;53.596;10.042;2022-11-23T14:09:09;19.90;99.90
15638;DHT22;26604;53.596;10.042;2022-11-23T14:14:18;20.10;99.90
15638;DHT22;26604;53.596;10.042;2022-11-23T14:17:09;20.20;99.90
15638;DHT22;26604;53.596;10.042;2022-11-23T14:22:59;20.20;99.90
15638;DHT22;26604;53.596;10.042;2022-11-23T14:25:36;20.30;99.90
15638;DHT22;26604;53.596;10.042;2022-11-23T14:28:16;20.20;99.90
15638;DHT22;26604;53.596;10.042;2022-11-23T14:30:58;20.20;99.90
15638;DHT22;26604;53.596;10.042;2022-11-23T14:33:35;20.20;99.90
15638;DHT22;26604;53.596;10.042;2022-11-23T14:36:19;20.10;99.90
15638;DHT22;26604;53.596;10.042;2022-11-23T14:41:49;20.00;99.90
15638;DHT22;26604;53.596;10.042;2022-11-23T14:44:16;20.00;99.90
15638;DHT22;26604;53.596;10.042;2022-11-23T14:47:00;19.90;99.90
15638;DHT22;26604;53.596;10.042;2022-11-23T14:49:27;19.90;99.90
15638;DHT22;26604;53.596;10.042;2022-11-23T14:51:56;19.90;99.90
15638;DHT22;26604;53.596;10.042;2022-11-23T14:54:23;19.80;99.90
15638;DHT22;26604;53.596;10.042;2022-11-23T14:56:52;19.80;99.90
15638;DHT22;26604;53.596;10.042;2022-11-23T14:59:24;19.70;99.90
15638;DHT22;26604;53.596;10.042;2022-11-23T15:01:55;19.70;99.90
15638;DHT22;26604;53.596;10.042;2022-11-23T15:04:24;19.70;99.90
15638;DHT22;26604;53.596;10.042;2022-11-23T15:06:54;19.60;99.90
15638;DHT22;26604;53.596;10.042;2022-11-23T15:09:37;19.60;99.90
15638;DHT22;26604;53.596;10.042;2022-11-23T15:12:07;19.60;99.90
15638;DHT22;26604;53.596;10.042;2022-11-23T15:14:34;19.60;99.90
15638;DHT22;26604;53.596;10.042;2022-11-23T15:17:14;19.60;99.90
15638;DHT22;26604;53.596;10.042;2022-11-23T15:19:41;19.50;99.90
15638;DHT22;26604;53.596;10.042;2022-11-23T15:22:13;19.50;99.90
15638;DHT22;26604;53.596;10.042;2022-11-23T15:24:44;19.50;99.90
15638;DHT22;26604;53.596;10.042;2022-11-23T15:27:15;19.50;99.90
15638;DHT22;26604;53.596;10.042;2022-11-23T15:29:51;19.50;99.90
15638;DHT22;26604;53.596;10.042;2022-11-23T15:32:22;19.50;99.90
15638;DHT22;26604;53.596;10.042;2022-11-23T15:34:51;19.50;99.90
15638;DHT22;26604;53.596;10.042;2022-11-23T15:37:20;19.40;99.90
15638;DHT22;26604;53.596;10.042;2022-11-23T15:39:49;19.40;99.90
15638;DHT22;26604;53.596;10.042;2022-11-23T15:42:17;19.50;99.90
15638;DHT22;26604;53.596;10.042;2022-11-23T15:44:45;19.50;99.90
15638;DHT22;26604;53.596;10.042;2022-11-23T15:47:14;19.50;99.90
15638;DHT22;26604;53.596;10.042;2022-11-23T15:49:43;19.50;99.90
15638;DHT22;26604;53.596;10.042;2022-11-23T15:52:14;19.50;99.90